sensor_id;sensor_type;location;lat;lon;timestamp;pressure;altitude;pressure_sealevel;temperature;humidity
21449;BME280;10885;52.830;13.788;2022-11-14T06:04:20;101773.97;;;7.26;73.30
21449;BME280;10885;52.830;13.788;2022-11-14T06:10:00;101758.13;;;7.20;73.46
21449;BME280;10885;52.830;13.788;2022-11-14T06:15:39;101763.56;;;7.14;73.90
21449;BME280;10885;52.830;13.788;2022-11-14T06:21:21;101775.03;;;7.09;74.20
21449;BME280;10885;52.830;13.788;2022-11-14T06:27:01;101777.28;;;7.06;74.17
21449;BME280;10885;52.830;13.788;2022-11-14T06:32:41;101773.84;;;7.05;74.23
21449;BME280;10885;52.830;13.788;2022-11-14T06:38:21;101778.75;;;6.93;74.13
21449;BME280;10885;52.830;13.788;2022-11-14T06:44:01;101775.56;;;6.96;74.36
21449;BME280;10885;52.830;13.788;2022-11-14T06:49:40;101769.25;;;7.01;74.51
21449;BME280;10885;52.830;13.788;2022-11-14T06:55:20;101766.22;;;7.05;74.39
21449;BME280;10885;52.830;13.788;2022-11-14T07:06:43;101771.94;;;7.03;74.14
21449;BME280;10885;52.830;13.788;2022-11-14T07:12:23;101744.69;;;7.12;74.53
21449;BME280;10885;52.830;13.788;2022-11-14T07:18:03;101751.88;;;7.16;74.16
21449;BME280;10885;52.830;13.788;2022-11-14T07:23:43;101751.81;;;7.25;74.32
21449;BME280;10885;52.830;13.788;2022-11-14T07:29:22;101754.28;;;7.33;74.11
21449;BME280;10885;52.830;13.788;2022-11-14T07:35:02;101764.88;;;7.38;74.08
21449;BME280;10885;52.830;13.788;2022-11-14T07:40:42;101765.78;;;7.39;74.06
21449;BME280;10885;52.830;13.788;2022-11-14T07:46:22;101764.75;;;7.36;74.15
21449;BME280;10885;52.830;13.788;2022-11-14T07:52:02;101756.97;;;7.35;73.63
21449;BME280;10885;52.830;13.788;2022-11-14T07:57:41;101752.06;;;7.28;73.73
21449;BME280;10885;52.830;13.788;2022-11-14T08:03:28;101745.03;;;7.25;73.78
21449;BME280;10885;52.830;13.788;2022-11-14T08:09:08;101749.94;;;7.32;73.74
21449;BME280;10885;52.830;13.788;2022-11-14T08:14:47;101752.13;;;7.38;73.67
21449;BME280;10885;52.830;13.788;2022-11-14T08:20:29;101758.94;;;7.48;73.60
21449;BME280;10885;52.830;13.788;2022-11-14T08:26:08;101739.94;;;7.44;73.48
21449;BME280;10885;52.830;13.788;2022-11-14T08:31:48;101739.47;;;7.59;73.41
21449;BME280;10885;52.830;13.788;2022-11-14T08:37:28;101734.69;;;7.72;73.44
21449;BME280;10885;52.830;13.788;2022-11-14T08:43:08;101727.56;;;7.78;73.47
21449;BME280;10885;52.830;13.788;2022-11-14T08:48:50;101732.34;;;7.94;73.35
21449;BME280;10885;52.830;13.788;2022-11-14T08:54:29;101723.31;;;8.08;72.77
21449;BME280;10885;52.830;13.788;2022-11-14T09:00:09;101717.72;;;8.12;72.21
21449;BME280;10885;52.830;13.788;2022-11-14T09:05:51;101717.19;;;8.06;72.16
21449;BME280;10885;52.830;13.788;2022-11-14T09:11:31;101711.44;;;8.19;72.30
21449;BME280;10885;52.830;13.788;2022-11-14T09:17:10;101719.25;;;8.20;71.79
21449;BME280;10885;52.830;13.788;2022-11-14T09:22:50;101728.69;;;8.31;72.38
21449;BME280;10885;52.830;13.788;2022-11-14T09:28:33;101712.28;;;8.89;72.07
21449;BME280;10885;52.830;13.788;2022-11-14T09:34:13;101703.13;;;9.13;71.66
21449;BME280;10885;52.830;13.788;2022-11-14T09:39:53;101698.00;;;9.24;71.16
21449;BME280;10885;52.830;13.788;2022-11-14T09:45:35;101702.28;;;9.45;71.23
21449;BME280;10885;52.830;13.788;2022-11-14T09:51:43;101691.13;;;9.77;69.34
21449;BME280;10885;52.830;13.788;2022-11-14T09:57:26;101691.63;;;10.39;69.96
21449;BME280;10885;52.830;13.788;2022-11-14T10:03:57;101672.53;;;11.17;69.24
21449;BME280;10885;52.830;13.788;2022-11-14T10:21:05;101660.34;;;10.55;67.71
21449;BME280;10885;52.830;13.788;2022-11-14T10:27:13;101657.59;;;10.99;67.69
21449;BME280;10885;52.830;13.788;2022-11-14T10:33:08;101654.34;;;10.54;66.97
21449;BME280;10885;52.830;13.788;2022-11-14T10:39:03;101628.47;;;10.51;67.60
21449;BME280;10885;52.830;13.788;2022-11-14T10:45:01;101629.78;;;10.34;67.28
21449;BME280;10885;52.830;13.788;2022-11-14T10:56:30;101612.06;;;10.38;67.57
21449;BME280;10885;52.830;13.788;2022-11-14T11:02:10;101599.16;;;10.60;67.33
21449;BME280;10885;52.830;13.788;2022-11-14T11:07:50;101601.56;;;11.29;67.45
21449;BME280;10885;52.830;13.788;2022-11-14T11:14:16;101599.41;;;11.72;66.77
21449;BME280;10885;52.830;13.788;2022-11-14T11:20:37;101607.16;;;11.97;66.35
21449;BME280;10885;52.830;13.788;2022-11-14T11:31:58;101581.84;;;12.55;65.61
21449;BME280;10885;52.830;13.788;2022-11-14T11:37:43;101569.72;;;12.66;64.98
21449;BME280;10885;52.830;13.788;2022-11-14T11:43:36;101557.41;;;12.75;64.40
21449;BME280;10885;52.830;13.788;2022-11-14T11:49:36;101548.72;;;12.86;64.36
21449;BME280;10885;52.830;13.788;2022-11-14T11:55:23;101539.59;;;12.91;64.12
21449;BME280;10885;52.830;13.788;2022-11-14T12:01:04;101535.84;;;13.00;63.91
21449;BME280;10885;52.830;13.788;2022-11-14T12:06:54;101524.81;;;13.16;63.96
21449;BME280;10885;52.830;13.788;2022-11-14T12:30:51;101510.06;;;13.13;63.49
21449;BME280;10885;52.830;13.788;2022-11-14T12:36:33;101497.28;;;13.14;63.31
21449;BME280;10885;52.830;13.788;2022-11-14T12:42:18;101492.31;;;13.31;63.31
21449;BME280;10885;52.830;13.788;2022-11-14T12:48:21;101495.78;;;13.31;63.05
21449;BME280;10885;52.830;13.788;2022-11-14T12:54:01;101495.38;;;13.25;63.16
21449;BME280;10885;52.830;13.788;2022-11-14T12:59:50;101502.97;;;13.37;63.46
21449;BME280;10885;52.830;13.788;2022-11-14T13:11:36;101502.00;;;13.35;63.04
21449;BME280;10885;52.830;13.788;2022-11-14T13:17:36;101496.31;;;13.41;63.30
21449;BME280;10885;52.830;13.788;2022-11-14T13:23:52;101493.22;;;13.46;63.03
21449;BME280;10885;52.830;13.788;2022-11-14T13:35:29;101470.50;;;13.26;63.29
21449;BME280;10885;52.830;13.788;2022-11-14T13:41:32;101477.66;;;13.17;63.47
21449;BME280;10885;52.830;13.788;2022-11-14T13:53:44;101466.47;;;12.88;63.64
21449;BME280;10885;52.830;13.788;2022-11-14T14:18:19;101446.69;;;11.28;65.42
21449;BME280;10885;52.830;13.788;2022-11-14T14:29:31;101449.09;;;10.77;66.92
21449;BME280;10885;52.830;13.788;2022-11-14T14:35:35;101437.88;;;10.51;66.93
21449;BME280;10885;52.830;13.788;2022-11-14T14:41:19;101428.97;;;10.34;67.49
21449;BME280;10885;52.830;13.788;2022-11-14T14:47:15;101425.75;;;10.13;68.36
21449;BME280;10885;52.830;13.788;2022-11-14T14:52:57;101415.25;;;9.98;67.68
21449;BME280;10885;52.830;13.788;2022-11-14T14:58:36;101412.78;;;9.76;68.77
21449;BME280;10885;52.830;13.788;2022-11-14T15:04:17;101405.66;;;9.60;68.66
21449;BME280;10885;52.830;13.788;2022-11-14T15:09:59;101405.41;;;9.45;68.97
21449;BME280;10885;52.830;13.788;2022-11-14T15:15:40;101401.44;;;9.27;69.87
21449;BME280;10885;52.830;13.788;2022-11-14T15:27:17;101398.25;;;8.95;69.78
21449;BME280;10885;52.830;13.788;2022-11-14T15:32:58;101395.63;;;8.84;70.58
21449;BME280;10885;52.830;13.788;2022-11-14T15:39:03;101392.34;;;8.74;70.62
21449;BME280;10885;52.830;13.788;2022-11-14T15:44:44;101392.75;;;8.69;70.89
21449;BME280;10885;52.830;13.788;2022-11-14T15:50:30;101379.38;;;8.61;70.59
21449;BME280;10885;52.830;13.788;2022-11-14T15:56:11;101383.69;;;8.40;71.24
21449;BME280;10885;52.830;13.788;2022-11-14T16:01:58;101380.75;;;8.35;71.24
21449;BME280;10885;52.830;13.788;2022-11-14T16:07:40;101380.72;;;8.13;71.67
21449;BME280;10885;52.830;13.788;2022-11-14T16:13:20;101377.84;;;7.99;72.31
21449;BME280;10885;52.830;13.788;2022-11-14T16:19:00;101377.06;;;8.00;72.13
21449;BME280;10885;52.830;13.788;2022-11-14T16:24:40;101373.13;;;7.93;72.23
21449;BME280;10885;52.830;13.788;2022-11-14T16:30:21;101379.81;;;7.81;72.80
21449;BME280;10885;52.830;13.788;2022-11-14T16:36:02;101369.47;;;7.79;72.79
21449;BME280;10885;52.830;13.788;2022-11-14T16:41:42;101377.16;;;7.69;73.16
21449;BME280;10885;52.830;13.788;2022-11-14T16:47:21;101382.00;;;7.55;73.03
21449;BME280;10885;52.830;13.788;2022-11-14T16:53:01;101373.72;;;7.48;72.85
21449;BME280;10885;52.830;13.788;2022-11-14T16:58:41;101370.06;;;7.44;73.37
21449;BME280;10885;52.830;13.788;2022-11-14T17:04:21;101379.75;;;7.48;73.45
21449;BME280;10885;52.830;13.788;2022-11-14T17:10:01;101380.25;;;7.44;73.96
21449;BME280;10885;52.830;13.788;2022-11-14T17:15:41;101378.84;;;7.37;73.42
21449;BME280;10885;52.830;13.788;2022-11-14T17:21:21;101387.13;;;7.35;73.61
21449;BME280;10885;52.830;13.788;2022-11-14T17:27:01;101383.06;;;7.27;73.60
21449;BME280;10885;52.830;13.788;2022-11-14T17:32:41;101387.66;;;7.21;73.72
21449;BME280;10885;52.830;13.788;2022-11-14T17:38:22;101377.03;;;7.16;73.16
21449;BME280;10885;52.830;13.788;2022-11-14T17:44:02;101371.84;;;7.14;73.61
21449;BME280;10885;52.830;13.788;2022-11-14T17:49:42;101366.34;;;7.10;73.25
21449;BME280;10885;52.830;13.788;2022-11-14T17:55:21;101368.38;;;7.04;73.49
21449;BME280;10885;52.830;13.788;2022-11-14T18:01:08;101362.91;;;7.09;73.70
21449;BME280;10885;52.830;13.788;2022-11-14T18:06:47;101357.66;;;7.18;73.85
21449;BME280;10885;52.830;13.788;2022-11-14T18:12:27;101360.13;;;7.16;73.37
21449;BME280;10885;52.830;13.788;2022-11-14T18:18:07;101359.56;;;7.00;73.34
21449;BME280;10885;52.830;13.788;2022-11-14T18:23:51;101359.56;;;6.90;73.34
21449;BME280;10885;52.830;13.788;2022-11-14T18:29:31;101366.69;;;6.84;73.26
21449;BME280;10885;52.830;13.788;2022-11-14T18:35:11;101366.16;;;6.67;73.25
21449;BME280;10885;52.830;13.788;2022-11-14T18:40:51;101362.22;;;6.61;74.05
21449;BME280;10885;52.830;13.788;2022-11-14T18:46:35;101348.03;;;6.54;74.14
21449;BME280;10885;52.830;13.788;2022-11-14T18:52:16;101347.13;;;6.43;73.71
21449;BME280;10885;52.830;13.788;2022-11-14T18:57:57;101347.88;;;6.42;73.75
21449;BME280;10885;52.830;13.788;2022-11-14T19:03:37;101343.78;;;6.34;74.21
21449;BME280;10885;52.830;13.788;2022-11-14T19:09:17;101336.41;;;6.27;74.03
21449;BME280;10885;52.830;13.788;2022-11-14T19:15:01;101322.22;;;6.20;74.00
21449;BME280;10885;52.830;13.788;2022-11-14T19:20:40;101312.03;;;6.20;74.40
21449;BME280;10885;52.830;13.788;2022-11-14T19:26:21;101301.13;;;6.21;74.34
21449;BME280;10885;52.830;13.788;2022-11-14T19:32:02;101314.50;;;6.29;74.64
21449;BME280;10885;52.830;13.788;2022-11-14T19:37:42;101301.38;;;6.34;74.54
21449;BME280;10885;52.830;13.788;2022-11-14T19:43:22;101299.84;;;6.36;74.33
21449;BME280;10885;52.830;13.788;2022-11-14T19:49:04;101301.78;;;6.39;74.25
21449;BME280;10885;52.830;13.788;2022-11-14T19:54:46;101300.78;;;6.37;74.24
21449;BME280;10885;52.830;13.788;2022-11-14T20:00:30;101293.66;;;6.43;73.92
21449;BME280;10885;52.830;13.788;2022-11-14T20:06:35;101293.38;;;6.50;73.92
21449;BME280;10885;52.830;13.788;2022-11-14T20:12:13;101287.94;;;6.56;74.10
21449;BME280;10885;52.830;13.788;2022-11-14T20:17:53;101285.91;;;6.62;73.93
21449;BME280;10885;52.830;13.788;2022-11-14T20:23:35;101283.84;;;6.68;73.88
21449;BME280;10885;52.830;13.788;2022-11-14T20:29:22;101291.28;;;6.75;73.67
21449;BME280;10885;52.830;13.788;2022-11-14T20:35:02;101260.69;;;6.75;73.74
21449;BME280;10885;52.830;13.788;2022-11-14T20:40:52;101257.38;;;6.66;74.25
21449;BME280;10885;52.830;13.788;2022-11-14T20:46:34;101269.09;;;6.64;73.56
21449;BME280;10885;52.830;13.788;2022-11-14T20:52:14;101266.81;;;6.57;73.87
21449;BME280;10885;52.830;13.788;2022-11-14T20:57:56;101250.09;;;6.50;73.77
21449;BME280;10885;52.830;13.788;2022-11-14T21:03:38;101261.31;;;6.52;73.62
21449;BME280;10885;52.830;13.788;2022-11-14T21:09:17;101240.94;;;6.52;73.45
21449;BME280;10885;52.830;13.788;2022-11-14T21:15:00;101242.06;;;6.46;73.59
21449;BME280;10885;52.830;13.788;2022-11-14T21:21:06;101240.31;;;6.45;74.14
21449;BME280;10885;52.830;13.788;2022-11-14T21:26:53;101235.22;;;6.45;73.89
21449;BME280;10885;52.830;13.788;2022-11-14T21:32:37;101226.06;;;6.47;73.91
21449;BME280;10885;52.830;13.788;2022-11-14T21:38:22;101231.66;;;6.43;74.17
21449;BME280;10885;52.830;13.788;2022-11-14T21:44:09;101224.63;;;6.40;73.62
21449;BME280;10885;52.830;13.788;2022-11-14T21:49:49;101235.97;;;6.44;73.98
21449;BME280;10885;52.830;13.788;2022-11-14T21:55:49;101221.06;;;6.48;73.82
21449;BME280;10885;52.830;13.788;2022-11-14T22:01:34;101217.50;;;6.46;73.97
21449;BME280;10885;52.830;13.788;2022-11-14T22:07:34;101217.38;;;6.45;73.84
21449;BME280;10885;52.830;13.788;2022-11-14T22:13:13;101221.47;;;6.53;74.05
21449;BME280;10885;52.830;13.788;2022-11-14T22:18:57;101226.81;;;6.56;73.89
21449;BME280;10885;52.830;13.788;2022-11-14T22:24:44;101217.75;;;6.60;74.00
21449;BME280;10885;52.830;13.788;2022-11-14T22:30:29;101209.38;;;6.61;73.94
21449;BME280;10885;52.830;13.788;2022-11-14T22:36:21;101208.72;;;6.53;73.94
21449;BME280;10885;52.830;13.788;2022-11-14T22:42:02;101210.13;;;6.49;74.10
